Wichita Mid Continent Airport
KICT : now visible

Airfield :











YOU CAN JOIN US ON...

 
LOGIN :

Register | Disclaimer

   EN    FR    IT 

 









Legend :    VFR   Marginal VFR   IFR   Intensive IFR   Very Intensive IFR
Visi :
Ceiling :
>= 8 km
>= 3000ft
5 to 8 km
1000 to 3000 ft
1500m to 5 km
500 to 1000 ft
800 to 1500m
200 to 500 ft
< 800m
< 200 ft
Symbols :   Thunderstorms  Fog  Heavy snow  Heavy precipitations  Wind > 20 kt







- Airport Elevation : 1333 ft
- IATA code : ICT


KICT - Wichita Mid Continent

CURRENT METAR :
  • 242353Z 12008KT 10SM FEW110 SCT150 SCT220 37/21 A2989 RMK AO2 PK WND 10026/2336 SLP101 60000 T03670206 10383 20356 56007

EXPIRED METARs :
  • 242253Z 12010KT 10SM FEW060 FEW110 SCT150 SCT200 38/21 A2989 RMK AO2 RAB2159E10 SLP101 P0000 T03780206
  • 242153Z 12007KT 10SM FEW060 SCT080 SCT110 BKN150 BKN180 36/21 A2990 RMK AO2 SLP106 T03610206

TAF KICT
Valid from the 25 at 00:00 until the 26 at 00:00 UTC


242325Z 2500/2524 12008KT P6SM SCT120 BKN200
FM250500 09007KT P6SM VCTS BKN140CB
FM251300 07007KT P6SM SCT030 BKN070
FM251800 15011KT P6SM SCT150 BKN200
KZKC FIR / North America



MET'MAP, your aeronautical weather chart ! - Copyright ORBIFLY December 2007 - Disclaimer

ORBIFLY MET'MAP TEAM :

Programming & Development : Alexandra Zaïnal
Concept & Development : Baudouin d'Aumeries
Co-Development & Prog : Marc-Olivier Méhu
Technical & hardware support : Manuel Goepfert

Contact : metmap@orbifly.com




SOURCES & CREDITS :

   NOAA       Earth
Advisory